Time;durP1;ratioP1;P1;durP2;ratioP2;P2;SDS_P1;SDS_P2;PMS_P1;PMS_P2;Temp;Humidity;BMP_temperature;BMP_pressure;BME280_temperature;BME280_humidity;BME280_pressure;Samples;Min_cycle;Max_cycle;Signal;HPM_P1;HPM_P2
2022/11/02 00:00:57;;;;;;;22.55;8.65;;;10.90;99.90;;;;;;5072446;28;20028;-49
2022/11/02 00:03:23;;;;;;;11.93;7.18;;;10.80;99.90;;;;;;5072176;28;20035;-49
2022/11/02 00:05:48;;;;;;;13.05;6.78;;;10.80;99.90;;;;;;5072302;28;20355;-49
2022/11/02 00:08:14;;;;;;;13.48;6.50;;;10.70;99.90;;;;;;5072071;28;20064;-49
2022/11/02 00:10:39;;;;;;;23.90;7.60;;;10.70;99.90;;;;;;5072025;28;20028;-48
2022/11/02 00:13:05;;;;;;;8.00;5.78;;;10.70;99.90;;;;;;5072260;28;20028;-48
2022/11/02 00:15:33;;;;;;;14.80;6.93;;;10.70;99.90;;;;;;5071943;28;20035;-50
2022/11/02 00:18:08;;;;;;;8.90;6.53;;;10.70;99.90;;;;;;5072185;28;20107;-49
2022/11/02 00:20:37;;;;;;;10.02;6.85;;;10.70;99.90;;;;;;5072133;28;20040;-49
2022/11/02 00:23:06;;;;;;;13.07;6.65;;;10.70;99.90;;;;;;5071764;28;20052;-51
2022/11/02 00:25:32;;;;;;;10.73;7.20;;;10.80;99.90;;;;;;5071630;28;20017;-50
2022/11/02 00:27:58;;;;;;;19.95;8.13;;;10.80;99.90;;;;;;5072073;28;20055;-48
2022/11/02 00:30:24;;;;;;;22.10;7.85;;;10.80;99.90;;;;;;5071822;28;20021;-50
2022/11/02 00:32:50;;;;;;;19.15;6.50;;;10.90;99.90;;;;;;5071946;28;20024;-48
2022/11/02 00:35:16;;;;;;;13.35;6.63;;;10.90;99.90;;;;;;5070488;28;20493;-52
2022/11/02 00:37:41;;;;;;;17.50;6.13;;;10.90;99.90;;;;;;5071699;28;20036;-49
2022/11/02 00:40:08;;;;;;;10.10;6.78;;;10.90;99.90;;;;;;5071845;28;20011;-50
2022/11/02 00:42:33;;;;;;;18.63;7.50;;;10.90;99.90;;;;;;5070170;28;20032;-50
2022/11/02 00:44:59;;;;;;;11.52;6.72;;;10.90;99.90;;;;;;5071738;28;20043;-50
2022/11/02 00:47:24;;;;;;;11.15;6.55;;;10.90;99.90;;;;;;5071166;28;20107;-48
2022/11/02 00:49:50;;;;;;;14.15;7.10;;;10.90;99.90;;;;;;5070457;28;20031;-49
2022/11/02 00:52:16;;;;;;;19.63;8.65;;;10.90;99.90;;;;;;5070950;28;20027;-48
2022/11/02 00:54:41;;;;;;;17.92;7.30;;;11.00;99.90;;;;;;5071745;28;20032;-49
2022/11/02 00:57:07;;;;;;;11.95;6.80;;;11.00;99.90;;;;;;5071463;28;20480;-51
2022/11/02 00:59:32;;;;;;;16.95;9.82;;;11.00;99.90;;;;;;5071505;28;20190;-51
2022/11/02 01:01:58;;;;;;;11.98;6.93;;;11.10;99.90;;;;;;5071449;28;20029;-52
2022/11/02 01:04:24;;;;;;;15.18;6.45;;;11.10;99.90;;;;;;5071373;28;20033;-50
2022/11/02 01:06:49;;;;;;;15.32;6.85;;;11.10;99.90;;;;;;5071213;28;20024;-49
2022/11/02 01:09:18;;;;;;;13.68;6.93;;;11.10;99.90;;;;;;5070850;28;20392;-53
2022/11/02 01:11:44;;;;;;;16.92;7.60;;;11.10;99.90;;;;;;5071561;28;20021;-53
2022/11/02 01:14:10;;;;;;;15.18;7.70;;;11.10;99.90;;;;;;5071110;28;20111;-50
2022/11/02 01:16:39;;;;;;;12.65;6.80;;;11.10;99.90;;;;;;5071462;28;20116;-51
2022/11/02 01:19:04;;;;;;;19.60;6.43;;;11.10;99.90;;;;;;5071455;28;20058;-50
2022/11/02 01:21:30;;;;;;;15.43;7.75;;;11.10;99.90;;;;;;5071246;28;20056;-50
2022/11/02 01:23:55;;;;;;;12.38;6.93;;;11.00;99.90;;;;;;5071258;28;20039;-49
2022/11/02 01:26:21;;;;;;;17.13;7.10;;;11.00;99.90;;;;;;5071077;28;20415;-50
2022/11/02 01:28:47;;;;;;;18.65;7.97;;;10.90;99.90;;;;;;5071244;28;20563;-49
2022/11/02 01:31:12;;;;;;;13.65;6.80;;;10.90;99.90;;;;;;5071325;28;20035;-49
2022/11/02 01:33:45;;;;;;;13.57;7.20;;;10.80;99.90;;;;;;5071203;28;20048;-53
2022/11/02 01:36:12;;;;;;;15.10;7.00;;;10.80;99.90;;;;;;5070995;28;20032;-49
2022/11/02 01:38:38;;;;;;;11.73;7.30;;;10.70;99.90;;;;;;5071190;28;20025;-49
2022/11/02 01:41:04;;;;;;;9.57;7.72;;;10.60;99.90;;;;;;5071237;28;20107;-51
2022/11/02 01:43:36;;;;;;;12.93;8.20;;;10.60;99.90;;;;;;5070967;28;20059;-50
2022/11/02 01:46:09;;;;;;;13.32;7.72;;;10.50;99.90;;;;;;5070716;28;20033;-49
2022/11/02 01:48:38;;;;;;;15.38;7.40;;;10.50;99.90;;;;;;5071023;28;20021;-50
2022/11/02 01:51:08;;;;;;;16.13;6.72;;;10.40;99.90;;;;;;5070895;28;20495;-49
2022/11/02 01:53:36;;;;;;;12.70;7.20;;;10.30;99.90;;;;;;5071065;28;20044;-50
2022/11/02 01:56:03;;;;;;;11.90;6.57;;;10.20;99.90;;;;;;5070851;28;20025;-48
2022/11/02 01:58:30;;;;;;;11.95;6.93;;;10.10;99.90;;;;;;5069646;28;20033;-49
2022/11/02 02:01:16;;;;;;;17.25;7.32;;;10.00;99.90;;;;;;5070933;28;20029;-50
2022/11/02 02:03:43;;;;;;;12.15;8.10;;;9.90;99.90;;;;;;5070806;28;20036;-51
2022/11/02 02:06:12;;;;;;;13.73;7.72;;;9.90;99.90;;;;;;5074479;28;20348;-50
2022/11/02 02:08:45;;;;;;;14.63;8.68;;;9.80;99.90;;;;;;5074539;28;20400;-49
2022/11/02 02:11:30;;;;;;;10.80;7.60;;;9.80;99.90;;;;;;5074647;28;20589;-48
2022/11/02 02:14:03;;;;;;;14.13;8.48;;;9.70;99.90;;;;;;5074518;28;20103;-51
2022/11/02 02:16:50;;;;;;;13.07;8.95;;;9.70;99.90;;;;;;5074188;28;20032;-48
2022/11/02 02:19:39;;;;;;;15.70;8.55;;;9.60;99.90;;;;;;5074322;28;20063;-49
2022/11/02 02:22:42;;;;;;;15.27;8.98;;;9.60;99.90;;;;;;5073199;28;20029;-49
2022/11/02 02:25:11;;;;;;;25.92;8.75;;;9.50;99.90;;;;;;5074005;28;20044;-49
2022/11/02 02:28:01;;;;;;;11.98;7.70;;;9.40;99.90;;;;;;5073973;28;20052;-49
2022/11/02 02:30:34;;;;;;;12.10;7.50;;;9.30;99.90;;;;;;5074343;28;20058;-48
2022/11/02 02:33:26;;;;;;;20.48;8.68;;;9.30;99.90;;;;;;5072926;28;20487;-51
2022/11/02 02:35:59;;;;;;;17.17;7.80;;;9.20;99.90;;;;;;5069253;28;20136;-50
2022/11/02 02:38:25;;;;;;;16.90;7.55;;;9.10;99.90;;;;;;5074070;28;20025;-48
2022/11/02 02:41:12;;;;;;;17.40;7.85;;;9.00;99.90;;;;;;5074146;28;20572;-49
2022/11/02 02:43:43;;;;;;;11.35;7.45;;;9.00;99.90;;;;;;5073929;28;20035;-48
2022/11/02 02:46:21;;;;;;;9.68;6.70;;;8.90;99.90;;;;;;5073916;28;20415;-48
2022/11/02 02:48:48;;;;;;;15.52;7.93;;;8.80;99.90;;;;;;5073885;28;20029;-48
2022/11/02 02:51:20;;;;;;;10.52;7.53;;;8.80;99.90;;;;;;5073837;28;20021;-51
2022/11/02 02:54:08;;;;;;;12.40;7.95;;;8.70;99.90;;;;;;5074035;28;20021;-49
2022/11/02 02:56:40;;;;;;;12.73;7.63;;;8.70;99.90;;;;;;5073577;28;20667;-49
2022/11/02 02:59:21;;;;;;;12.45;8.15;;;8.60;99.90;;;;;;5073798;28;20025;-49
2022/11/02 03:01:47;;;;;;;18.30;7.68;;;8.60;99.90;;;;;;5073818;28;20032;-49
2022/11/02 03:04:14;;;;;;;11.75;7.88;;;8.60;99.90;;;;;;5073487;28;20539;-48
2022/11/02 03:06:42;;;;;;;8.75;7.55;;;8.50;99.90;;;;;;5073302;28;20120;-49
2022/11/02 03:09:39;;;;;;;12.77;7.63;;;8.50;99.90;;;;;;5073424;28;20071;-48
2022/11/02 03:12:32;;;;;;;11.02;7.22;;;8.50;99.90;;;;;;5073367;28;20019;-49
2022/11/02 03:15:09;;;;;;;10.60;6.85;;;8.40;99.90;;;;;;5072947;28;20057;-49
2022/11/02 03:17:51;;;;;;;14.32;7.80;;;8.40;99.90;;;;;;5073263;28;21481;-48
2022/11/02 03:20:19;;;;;;;11.63;7.05;;;8.40;99.90;;;;;;5073297;28;20021;-50
2022/11/02 03:22:51;;;;;;;13.85;7.10;;;8.40;99.90;;;;;;5073293;28;20111;-50
2022/11/02 03:25:38;;;;;;;10.50;7.03;;;8.40;99.90;;;;;;5072857;28;20082;-48
2022/11/02 03:28:32;;;;;;;11.82;8.60;;;8.30;99.90;;;;;;5071862;28;20356;-50
2022/11/02 03:31:29;;;;;;;10.82;8.10;;;8.30;99.90;;;;;;5073254;28;20024;-49
2022/11/02 03:34:10;;;;;;;10.52;7.47;;;8.20;99.90;;;;;;5055062;28;20080;-49
2022/11/02 03:36:42;;;;;;;17.50;8.52;;;8.20;99.90;;;;;;5073111;28;20372;-49
2022/11/02 03:39:11;;;;;;;13.85;8.73;;;8.10;99.90;;;;;;5072892;28;20048;-51
2022/11/02 03:41:40;;;;;;;14.57;9.23;;;8.10;99.90;;;;;;5072876;28;20452;-50
2022/11/02 03:44:10;;;;;;;15.68;8.95;;;8.10;99.90;;;;;;5072505;28;20086;-50
2022/11/02 03:46:39;;;;;;;14.55;8.25;;;8.10;99.90;;;;;;5072909;28;20063;-51
2022/11/02 03:49:09;;;;;;;16.27;7.88;;;8.10;99.90;;;;;;5072793;28;20091;-50
2022/11/02 03:51:38;;;;;;;19.58;8.27;;;8.00;99.90;;;;;;5072640;28;20020;-50
2022/11/02 03:54:24;;;;;;;17.75;7.82;;;8.00;99.90;;;;;;5072491;28;20032;-51
2022/11/02 03:56:55;;;;;;;11.98;8.32;;;8.00;99.90;;;;;;5072763;28;20058;-49
2022/11/02 03:59:21;;;;;;;9.88;7.57;;;7.90;99.90;;;;;;5072449;28;20073;-50
2022/11/02 04:01:49;;;;;;;31.05;8.93;;;7.90;99.90;;;;;;5072584;28;20025;-50
2022/11/02 04:04:15;;;;;;;17.52;8.70;;;7.90;99.90;;;;;;5070801;28;20623;-52
2022/11/02 04:06:44;;;;;;;20.88;8.05;;;7.90;99.90;;;;;;5072629;28;20074;-50
2022/11/02 04:09:10;;;;;;;16.60;7.95;;;7.90;99.90;;;;;;5072170;28;20090;-49
2022/11/02 04:14:38;;;;;;;13.45;9.02;;;7.80;99.90;;;;;;5071922;28;20056;-50
2022/11/02 04:19:50;;;;;;;19.83;7.55;;;7.80;99.90;;;;;;5072410;28;20105;-50
2022/11/02 04:25:19;;;;;;;13.95;8.80;;;7.90;99.90;;;;;;5071323;28;20036;-50
2022/11/02 04:27:52;;;;;;;11.27;8.32;;;7.80;99.90;;;;;;5069414;28;20135;-50
2022/11/02 04:30:20;;;;;;;21.02;6.43;;;7.80;99.90;;;;;;5071405;28;20555;-49
2022/11/02 04:35:36;;;;;;;13.82;6.47;;;8.00;99.90;;;;;;5071100;28;20743;-50
2022/11/02 04:40:46;;;;;;;9.05;6.90;;;8.10;99.90;;;;;;5072198;28;20036;-50
2022/11/02 04:43:12;;;;;;;11.95;6.53;;;8.20;99.90;;;;;;5071509;28;20032;-51
2022/11/02 04:45:38;;;;;;;12.55;7.03;;;8.30;99.90;;;;;;5071459;28;20028;-49
2022/11/02 04:48:08;;;;;;;9.35;6.78;;;8.40;99.90;;;;;;5071773;28;20032;-50
2022/11/02 04:50:34;;;;;;;8.27;6.70;;;8.50;99.90;;;;;;5071576;28;20585;-49
2022/11/02 04:53:02;;;;;;;12.23;7.22;;;8.60;99.90;;;;;;5070226;28;20448;-49
2022/11/02 04:55:28;;;;;;;9.80;6.40;;;8.60;99.90;;;;;;5071619;28;20500;-50
2022/11/02 04:57:54;;;;;;;18.90;7.80;;;8.70;99.90;;;;;;5071771;28;20087;-50
2022/11/02 05:00:21;;;;;;;9.70;6.55;;;8.70;99.90;;;;;;5071440;28;20048;-50
2022/11/02 05:02:47;;;;;;;11.07;6.43;;;8.80;99.90;;;;;;5071332;28;20028;-50
2022/11/02 05:05:14;;;;;;;17.40;7.20;;;8.80;99.90;;;;;;5071662;28;20043;-50
2022/11/02 05:07:41;;;;;;;22.65;7.10;;;8.80;99.90;;;;;;5071204;28;20032;-49
2022/11/02 05:10:07;;;;;;;12.30;7.00;;;8.90;99.90;;;;;;5071529;28;20028;-52
2022/11/02 05:12:33;;;;;;;10.93;7.28;;;8.90;99.90;;;;;;5071051;28;20028;-49
2022/11/02 05:14:59;;;;;;;11.10;6.45;;;9.00;99.90;;;;;;5071288;28;20023;-50
2022/11/02 05:17:24;;;;;;;11.75;6.90;;;9.10;99.90;;;;;;5071737;28;20112;-50
2022/11/02 05:19:50;;;;;;;10.65;6.65;;;9.10;99.90;;;;;;5071335;28;20040;-49
2022/11/02 05:22:16;;;;;;;9.70;6.75;;;9.10;99.90;;;;;;5070974;28;20025;-51
2022/11/02 05:24:41;;;;;;;13.65;7.22;;;9.10;99.90;;;;;;5071421;28;20024;-50
2022/11/02 05:27:08;;;;;;;11.52;7.50;;;9.20;99.90;;;;;;5071142;28;20025;-49
2022/11/02 05:29:35;;;;;;;9.55;6.38;;;9.30;99.90;;;;;;5071307;28;20115;-52
2022/11/02 05:32:00;;;;;;;15.13;7.70;;;9.30;99.90;;;;;;5071106;28;20016;-51
2022/11/02 05:34:26;;;;;;;14.68;6.90;;;9.30;99.90;;;;;;5071131;28;20078;-50
2022/11/02 05:36:51;;;;;;;12.73;6.63;;;9.40;99.90;;;;;;5071382;28;20085;-51
2022/11/02 05:39:17;;;;;;;27.10;8.45;;;9.40;99.90;;;;;;5073787;28;20066;-51
2022/11/02 05:45:05;;;;;;;17.90;7.72;;;9.50;99.90;;;;;;5075113;28;20043;-49
2022/11/02 05:47:32;;;;;;;11.57;7.07;;;9.50;99.90;;;;;;5074965;28;20021;-48
2022/11/02 05:49:57;;;;;;;17.05;7.65;;;9.60;99.90;;;;;;5075121;28;20124;-49
2022/11/02 05:52:23;;;;;;;19.02;7.88;;;9.60;99.90;;;;;;5074523;28;20104;-50
2022/11/02 05:54:49;;;;;;;13.70;7.15;;;9.70;99.90;;;;;;5075166;28;20115;-50
2022/11/02 05:57:16;;;;;;;11.35;6.75;;;9.70;99.90;;;;;;5074866;28;20047;-52
2022/11/02 05:59:41;;;;;;;16.67;7.50;;;9.70;99.90;;;;;;5074978;28;20028;-49
2022/11/02 06:02:08;;;;;;;17.00;7.50;;;9.70;99.90;;;;;;5073286;28;20431;-50
2022/11/02 06:04:34;;;;;;;18.27;7.57;;;9.70;99.90;;;;;;5074536;28;20051;-51
2022/11/02 06:07:00;;;;;;;18.90;6.63;;;9.80;99.90;;;;;;5074778;28;20020;-50
2022/11/02 06:09:26;;;;;;;14.10;6.55;;;9.80;99.90;;;;;;5074458;28;20048;-50
2022/11/02 06:11:52;;;;;;;12.45;6.95;;;9.90;99.90;;;;;;5074456;28;20023;-50
2022/11/02 06:14:17;;;;;;;11.32;7.05;;;10.00;99.90;;;;;;5074434;28;20024;-51
2022/11/02 06:16:44;;;;;;;12.27;7.95;;;10.00;99.90;;;;;;5074374;28;20045;-49
2022/11/02 06:19:10;;;;;;;15.55;8.02;;;10.00;99.90;;;;;;5074710;28;20032;-51
2022/11/02 06:21:35;;;;;;;13.88;9.15;;;9.90;99.90;;;;;;5074257;28;20032;-52
2022/11/02 06:24:01;;;;;;;12.38;8.60;;;10.00;99.90;;;;;;5074160;28;20024;-52
2022/11/02 06:26:26;;;;;;;13.93;7.80;;;10.00;99.90;;;;;;5074264;28;20025;-50
2022/11/02 06:28:52;;;;;;;16.38;9.05;;;10.00;99.90;;;;;;5074404;28;20025;-50
2022/11/02 06:31:18;;;;;;;14.13;10.02;;;10.00;99.90;;;;;;5072900;28;20017;-50
2022/11/02 06:33:44;;;;;;;17.23;8.60;;;10.00;99.90;;;;;;5074027;28;20037;-53
2022/11/02 06:36:10;;;;;;;11.48;8.70;;;10.10;99.90;;;;;;5074191;28;20066;-52
2022/11/02 06:38:37;;;;;;;13.25;9.07;;;10.10;99.90;;;;;;5074014;28;20029;-49
2022/11/02 06:41:05;;;;;;;9.48;8.00;;;10.20;99.90;;;;;;5074168;28;20029;-51
2022/11/02 06:43:31;;;;;;;15.75;7.93;;;10.20;99.90;;;;;;5073664;28;20367;-50
2022/11/02 06:45:57;;;;;;;16.60;7.82;;;10.20;99.90;;;;;;5073966;28;20032;-54
2022/11/02 06:48:24;;;;;;;18.17;9.43;;;10.20;99.90;;;;;;5073801;28;20028;-51
2022/11/02 06:50:50;;;;;;;16.55;8.10;;;10.30;99.90;;;;;;5073225;28;20100;-50
2022/11/02 06:53:16;;;;;;;21.13;7.65;;;10.30;99.90;;;;;;5073598;28;20115;-53
2022/11/02 06:55:41;;;;;;;18.48;10.02;;;10.30;99.90;;;;;;5073936;28;20028;-53
2022/11/02 06:58:07;;;;;;;18.45;8.80;;;10.40;99.90;;;;;;5073817;28;20028;-49
2022/11/02 07:00:33;;;;;;;15.68;7.95;;;10.40;99.90;;;;;;5073758;28;20112;-49
2022/11/02 07:03:00;;;;;;;22.92;9.48;;;10.50;99.90;;;;;;5073158;28;20028;-54
2022/11/02 07:05:26;;;;;;;24.80;9.40;;;10.60;99.90;;;;;;5072150;28;20020;-50
2022/11/02 07:07:52;;;;;;;21.33;9.68;;;10.60;99.90;;;;;;5073522;28;20455;-50
2022/11/02 07:10:18;;;;;;;26.45;9.48;;;10.70;99.90;;;;;;5073264;28;20530;-52
2022/11/02 07:12:43;;;;;;;18.35;9.50;;;10.70;99.90;;;;;;5073316;28;20103;-50
2022/11/02 07:15:10;;;;;;;20.15;8.93;;;10.80;99.90;;;;;;5073026;28;20063;-52
2022/11/02 07:17:39;;;;;;;14.77;8.15;;;10.80;99.90;;;;;;5071768;28;20029;-50
2022/11/02 07:20:05;;;;;;;16.55;7.43;;;10.90;99.90;;;;;;5073076;28;20020;-66
2022/11/02 07:22:31;;;;;;;15.05;7.43;;;11.00;99.90;;;;;;5073027;28;20560;-51
2022/11/02 07:24:57;;;;;;;9.05;7.00;;;11.20;99.90;;;;;;5073110;28;20059;-50
2022/11/02 07:28:12;;;;;;;18.05;7.15;;;11.30;99.90;;;;;;5073120;28;20376;-53
2022/11/02 07:30:38;;;;;;;16.77;6.18;;;11.50;99.90;;;;;;5073016;28;20108;-51
2022/11/02 07:33:03;;;;;;;15.70;6.90;;;11.60;99.90;;;;;;5073091;28;20103;-51
2022/11/02 07:35:29;;;;;;;17.83;6.15;;;11.70;99.90;;;;;;5072997;28;20021;-50
2022/11/02 07:38:01;;;;;;;8.18;5.60;;;11.80;99.90;;;;;;5073037;28;20444;-54
2022/11/02 07:40:28;;;;;;;14.10;5.50;;;11.90;99.90;;;;;;5072665;28;20021;-50
2022/11/02 07:42:54;;;;;;;23.48;7.47;;;12.10;99.90;;;;;;5072668;28;20483;-53
2022/11/02 07:45:38;;;;;;;15.50;6.60;;;12.20;99.90;;;;;;5072631;28;20028;-51
2022/11/02 07:48:04;;;;;;;9.48;5.45;;;12.30;99.90;;;;;;5072623;28;20433;-50
2022/11/02 07:50:29;;;;;;;13.65;7.13;;;12.40;99.90;;;;;;5072720;28;20020;-54
2022/11/02 07:52:56;;;;;;;17.95;7.13;;;12.40;99.90;;;;;;5072537;28;20066;-54
2022/11/02 07:55:25;;;;;;;9.52;7.07;;;12.40;99.90;;;;;;5072694;28;20052;-52
2022/11/02 07:58:02;;;;;;;17.88;6.30;;;12.40;99.90;;;;;;5072146;28;20584;-51
2022/11/02 08:00:30;;;;;;;10.10;5.72;;;12.60;99.90;;;;;;5072013;28;20108;-54
2022/11/02 08:02:58;;;;;;;12.95;5.30;;;12.70;99.90;;;;;;5069883;28;20020;-51
2022/11/02 08:05:24;;;;;;;6.10;4.93;;;12.90;99.90;;;;;;5072062;28;20041;-51
2022/11/02 08:08:14;;;;;;;22.90;5.47;;;13.00;99.90;;;;;;5070387;28;20119;-52
2022/11/02 08:10:41;;;;;;;10.13;4.80;;;13.10;99.90;;;;;;5072113;28;20077;-53
2022/11/02 08:13:11;;;;;;;15.52;5.10;;;13.20;99.90;;;;;;5070944;28;20456;-50
2022/11/02 08:15:37;;;;;;;12.40;6.22;;;13.30;99.90;;;;;;5071703;28;20060;-51
2022/11/02 08:18:04;;;;;;;11.13;4.68;;;13.40;99.90;;;;;;5071965;28;20060;-51
2022/11/02 08:20:31;;;;;;;6.65;4.53;;;13.60;99.90;;;;;;5070988;28;20430;-51
2022/11/02 08:22:56;;;;;;;14.45;5.35;;;13.80;99.90;;;;;;5071163;28;20012;-51
2022/11/02 08:25:23;;;;;;;10.18;4.28;;;13.70;99.90;;;;;;5071713;28;20035;-50
2022/11/02 08:27:48;;;;;;;19.08;4.55;;;13.90;99.90;;;;;;5070812;28;20056;-51
2022/11/02 08:30:14;;;;;;;8.35;4.20;;;14.00;99.90;;;;;;5071753;28;20464;-53
2022/11/02 08:32:40;;;;;;;10.00;4.45;;;14.10;99.90;;;;;;5060681;28;20063;-49
2022/11/02 08:35:06;;;;;;;8.73;4.13;;;14.10;99.90;;;;;;5071970;28;20055;-50
2022/11/02 08:37:31;;;;;;;20.20;4.85;;;14.10;99.90;;;;;;5071738;28;20025;-50
2022/11/02 08:39:57;;;;;;;6.80;4.38;;;14.20;99.90;;;;;;5071710;28;20031;-51
2022/11/02 08:42:23;;;;;;;12.57;5.28;;;14.30;99.90;;;;;;5071634;28;20033;-49
2022/11/02 08:44:48;;;;;;;10.00;4.18;;;14.30;99.90;;;;;;5071701;28;20020;-50
2022/11/02 08:47:14;;;;;;;14.82;4.80;;;14.70;99.90;;;;;;5071656;28;20071;-54
2022/11/02 08:49:40;;;;;;;5.35;3.20;;;14.50;99.90;;;;;;5071195;28;20144;-51
2022/11/02 08:52:06;;;;;;;9.57;3.92;;;14.70;99.90;;;;;;5070436;28;20136;-53
2022/11/02 08:54:32;;;;;;;4.63;3.55;;;14.80;99.90;;;;;;5069508;28;20498;-53
2022/11/02 08:56:57;;;;;;;8.65;4.53;;;14.50;99.90;;;;;;5069829;28;20035;-50
2022/11/02 08:59:23;;;;;;;10.35;3.45;;;14.60;99.90;;;;;;5068695;28;20029;-50
2022/11/02 09:01:49;;;;;;;4.65;2.90;;;14.70;99.90;;;;;;5069474;28;20042;-50
2022/11/02 09:04:14;;;;;;;7.50;3.55;;;14.70;99.90;;;;;;5066295;28;20044;-50
2022/11/02 09:06:40;;;;;;;7.03;3.50;;;14.60;99.90;;;;;;5067795;28;20028;-50
2022/11/02 09:09:05;;;;;;;5.28;3.33;;;14.70;99.90;;;;;;5068488;28;20055;-51
2022/11/02 09:11:31;;;;;;;6.20;3.50;;;14.80;99.90;;;;;;5069219;28;20016;-52
2022/11/02 09:13:57;;;;;;;8.70;3.45;;;14.90;99.90;;;;;;5068332;28;20027;-51
2022/11/02 09:16:22;;;;;;;9.77;3.40;;;15.20;99.90;;;;;;5068906;28;20043;-51
2022/11/02 09:18:48;;;;;;;10.88;3.03;;;15.30;99.90;;;;;;5069783;28;20036;-50
2022/11/02 09:21:13;;;;;;;6.63;3.42;;;15.50;99.90;;;;;;5069812;28;20052;-51
2022/11/02 09:23:39;;;;;;;8.13;3.83;;;15.40;99.90;;;;;;5069660;28;20298;-50
2022/11/02 09:26:05;;;;;;;8.73;4.13;;;15.50;99.90;;;;;;5069785;28;20020;-51
2022/11/02 09:28:30;;;;;;;13.25;3.33;;;15.50;99.90;;;;;;5070033;28;20036;-50
2022/11/02 09:30:56;;;;;;;11.88;3.15;;;15.50;99.90;;;;;;5070150;28;20024;-49
2022/11/02 09:33:22;;;;;;;5.57;2.90;;;15.90;99.90;;;;;;5070063;28;20415;-51
2022/11/02 09:35:48;;;;;;;6.18;3.00;;;16.10;99.90;;;;;;5069929;28;20029;-50
2022/11/02 09:38:15;;;;;;;11.73;3.00;;;16.40;99.90;;;;;;5070081;28;20074;-49
2022/11/02 09:40:43;;;;;;;6.88;2.58;;;16.30;99.90;;;;;;5069958;28;20048;-52
2022/11/02 09:43:16;;;;;;;8.50;3.50;;;16.30;99.90;;;;;;5070049;28;20099;-50
2022/11/02 09:45:59;;;;;;;13.38;3.25;;;16.60;99.90;;;;;;5069853;28;20021;-52
2022/11/02 09:48:32;;;;;;;11.93;3.05;;;16.60;99.90;;;;;;5069983;28;20020;-51
2022/11/02 09:51:01;;;;;;;5.32;2.72;;;17.40;99.90;;;;;;5070045;28;20025;-51
2022/11/02 09:53:49;;;;;;;5.25;2.60;;;18.80;99.90;;;;;;5069735;28;20021;-50
2022/11/02 09:56:18;;;;;;;5.95;2.97;;;20.00;97.10;;;;;;5069861;28;20032;-53
2022/11/02 09:58:58;;;;;;;9.48;2.58;;;20.40;95.20;;;;;;5069657;28;20127;-50
2022/11/02 10:02:01;;;;;;;8.07;2.78;;;21.40;93.00;;;;;;5069608;28;20024;-51
2022/11/02 10:05:13;;;;;;;2.85;2.05;;;21.70;90.80;;;;;;5069254;28;20020;-50
2022/11/02 10:07:56;;;;;;;8.07;2.70;;;23.00;89.90;;;;;;5047691;28;20407;-50
2022/11/02 10:10:52;;;;;;;4.35;2.47;;;24.10;84.50;;;;;;5069519;28;20028;-50
2022/11/02 10:13:23;;;;;;;4.47;2.53;;;24.30;81.70;;;;;;5069623;28;20032;-50
2022/11/02 10:15:55;;;;;;;3.50;2.33;;;24.70;78.00;;;;;;5069685;28;20035;-50
2022/11/02 10:18:25;;;;;;;4.50;2.95;;;24.30;78.20;;;;;;5069561;28;20096;-51
2022/11/02 10:20:57;;;;;;;7.55;2.70;;;23.60;79.90;;;;;;5069585;28;20093;-51
2022/11/02 10:23:34;;;;;;;11.38;2.95;;;22.10;83.20;;;;;;5069468;28;20024;-52
2022/11/02 10:26:01;;;;;;;5.03;2.88;;;20.80;88.50;;;;;;5071857;28;20092;-49
2022/11/02 10:28:34;;;;;;;11.35;2.85;;;19.70;90.50;;;;;;5073045;28;20016;-51
2022/11/02 10:31:01;;;;;;;4.55;2.75;;;18.70;92.30;;;;;;5073119;28;20028;-50
2022/11/02 10:33:29;;;;;;;13.88;3.63;;;18.10;94.40;;;;;;5072277;28;20081;-50
2022/11/02 10:36:14;;;;;;;4.75;3.55;;;17.70;95.50;;;;;;5073056;28;20548;-51
2022/11/02 10:38:39;;;;;;;7.57;3.35;;;17.50;96.30;;;;;;5073309;28;20403;-51
2022/11/02 10:41:21;;;;;;;8.98;4.28;;;17.20;97.40;;;;;;5073246;28;20032;-51
2022/11/02 10:43:56;;;;;;;11.90;2.85;;;17.00;99.30;;;;;;5072565;28;20111;-51
2022/11/02 10:46:46;;;;;;;7.55;3.80;;;17.00;99.10;;;;;;5072186;28;20036;-49
2022/11/02 10:49:39;;;;;;;10.13;4.03;;;17.00;99.90;;;;;;5071915;28;20441;-51
2022/11/02 10:52:05;;;;;;;5.93;2.95;;;17.00;99.40;;;;;;5072637;28;20024;-50
2022/11/02 10:54:32;;;;;;;4.75;2.00;;;16.80;99.70;;;;;;5072346;28;20071;-49
2022/11/02 10:56:58;;;;;;;9.18;2.78;;;16.50;97.30;;;;;;5072441;28;20056;-49
2022/11/02 10:59:24;;;;;;;4.68;2.20;;;16.40;96.40;;;;;;5072481;28;20476;-52
2022/11/02 11:01:57;;;;;;;5.90;1.95;;;16.30;96.40;;;;;;5072355;28;20086;-50
2022/11/02 11:04:28;;;;;;;6.88;2.30;;;16.30;95.50;;;;;;5070695;28;20035;-49
2022/11/02 11:06:55;;;;;;;3.83;1.77;;;16.30;96.30;;;;;;5071951;28;20024;-50
2022/11/02 11:09:29;;;;;;;10.80;2.45;;;16.90;94.80;;;;;;5071912;28;20592;-49
2022/11/02 11:12:01;;;;;;;;;;;17.30;94.80;;;;;;5073327;28;20025;-50
2022/11/02 11:14:29;;;;;;;7.53;2.20;;;17.80;94.60;;;;;;5049178;28;19908;-51
2022/11/02 11:17:01;;;;;;;6.65;1.95;;;17.60;94.60;;;;;;5044237;28;20116;-53
2022/11/02 11:19:38;;;;;;;7.07;2.13;;;17.60;95.60;;;;;;5036273;28;20071;-51
2022/11/02 11:22:25;;;;;;;9.52;2.78;;;17.10;94.70;;;;;;5033751;28;20029;-54
2022/11/02 11:24:52;;;;;;;8.52;2.47;;;16.90;94.90;;;;;;5034486;28;20025;-50
2022/11/02 11:27:22;;;;;;;6.18;2.08;;;16.90;96.60;;;;;;5035220;28;20017;-52
2022/11/02 11:29:53;;;;;;;7.95;3.28;;;16.80;95.40;;;;;;5037775;28;20109;-53
2022/11/02 11:32:29;;;;;;;9.85;2.10;;;16.60;96.10;;;;;;5035598;28;20032;-50
2022/11/02 11:35:02;;;;;;;9.05;2.80;;;16.60;97.20;;;;;;5037216;28;20509;-53
2022/11/02 11:37:33;;;;;;;6.22;2.60;;;16.70;95.80;;;;;;5030782;28;20025;-52
2022/11/02 11:40:11;;;;;;;11.00;2.00;;;16.80;95.80;;;;;;5033920;28;20037;-51
2022/11/02 11:42:36;;;;;;;5.20;2.00;;;16.50;94.60;;;;;;5038407;28;20032;-55
2022/11/02 11:45:04;;;;;;;16.58;2.35;;;16.60;94.50;;;;;;5034698;28;20509;-52
2022/11/02 11:47:35;;;;;;;4.75;1.80;;;16.50;95.40;;;;;;5030230;28;20078;-50
2022/11/02 11:50:21;;;;;;;8.85;1.90;;;16.80;95.20;;;;;;5032765;28;20009;-51
2022/11/02 11:53:12;;;;;;;3.83;1.50;;;17.90;91.80;;;;;;5031548;28;20033;-54
2022/11/02 11:55:52;;;;;;;4.70;1.77;;;19.60;87.60;;;;;;5032089;28;22857;-53
2022/11/02 11:58:29;;;;;;;10.07;1.60;;;19.90;86.20;;;;;;5033784;28;20154;-53
2022/11/02 12:01:16;;;;;;;11.20;1.83;;;20.40;83.90;;;;;;5033314;28;20075;-56
2022/11/02 12:03:52;;;;;;;12.38;2.05;;;20.40;81.40;;;;;;5060287;28;20036;-53
2022/11/02 12:06:29;;;;;;;2.22;1.25;;;22.20;78.80;;;;;;5072138;28;20048;-53
2022/11/02 12:09:06;;;;;;;8.40;1.77;;;24.20;70.30;;;;;;5065617;28;20048;-51
2022/11/02 12:11:45;;;;;;;3.00;1.30;;;25.40;65.20;;;;;;5071921;28;20475;-50
2022/11/02 12:14:37;;;;;;;2.97;1.17;;;25.70;60.80;;;;;;5072189;28;20024;-51
2022/11/02 12:17:24;;;;;;;8.20;1.83;;;24.40;60.60;;;;;;5072020;28;20052;-52
2022/11/02 12:20:17;;;;;;;3.42;1.30;;;24.70;61.00;;;;;;5070579;28;20491;-55
2022/11/02 12:22:56;;;;;;;4.07;1.45;;;24.90;58.30;;;;;;5071867;28;20044;-51
2022/11/02 12:25:47;;;;;;;3.78;1.55;;;25.30;57.50;;;;;;5071543;28;20096;-50
2022/11/02 12:28:22;;;;;;;6.35;1.80;;;25.60;59.50;;;;;;5071537;28;20059;-53
2022/11/02 12:31:02;;;;;;;5.80;1.92;;;23.60;59.90;;;;;;5072069;28;20045;-52
2022/11/02 12:33:43;;;;;;;6.28;1.80;;;24.00;59.60;;;;;;5059705;28;20078;-52
2022/11/02 12:36:43;;;;;;;5.53;1.70;;;23.40;60.70;;;;;;5071879;28;20655;-52
2022/11/02 12:39:46;;;;;;;7.50;3.03;;;22.30;61.90;;;;;;5020855;28;20468;-51
2022/11/02 12:42:25;;;;;;;8.05;3.33;;;21.30;64.90;;;;;;5070388;28;20460;-52
2022/11/02 12:45:04;;;;;;;17.50;2.58;;;20.60;68.70;;;;;;5069834;28;20024;-53
2022/11/02 12:47:43;;;;;;;9.18;2.25;;;19.40;71.40;;;;;;5070801;28;20078;-56
2022/11/02 12:50:20;;;;;;;7.68;2.58;;;19.20;73.10;;;;;;5071366;28;20028;-51
2022/11/02 12:52:46;;;;;;;6.65;2.13;;;18.70;73.70;;;;;;5070685;28;20035;-51
2022/11/02 12:55:16;;;;;;;7.13;2.55;;;18.40;78.50;;;;;;5063150;28;20402;-53
2022/11/02 12:57:42;;;;;;;8.20;2.05;;;18.40;78.80;;;;;;5028374;28;20021;-51
2022/11/02 13:00:18;;;;;;;10.15;2.50;;;18.10;78.40;;;;;;5034530;28;20072;-51
2022/11/02 13:03:21;;;;;;;7.50;2.50;;;17.70;79.80;;;;;;5042272;28;20033;-52
2022/11/02 13:05:54;;;;;;;6.20;2.23;;;17.70;80.70;;;;;;5042076;28;20103;-51
2022/11/02 13:08:55;;;;;;;10.18;2.30;;;17.70;82.90;;;;;;5040425;28;20641;-56
2022/11/02 13:11:43;;;;;;;8.13;3.33;;;17.70;83.30;;;;;;5036264;28;20052;-52
2022/11/02 13:14:18;;;;;;;6.07;2.70;;;17.70;82.80;;;;;;5058284;28;20032;-51
2022/11/02 13:16:56;;;;;;;7.25;2.55;;;17.50;85.00;;;;;;5060054;28;20020;-51
2022/11/02 13:19:39;;;;;;;11.35;2.80;;;17.60;84.90;;;;;;5058630;28;20024;-52
2022/11/02 13:22:08;;;;;;;5.23;2.33;;;17.60;86.20;;;;;;5059570;28;20031;-54